sensor_id;sensor_type;location;lat;lon;timestamp;P1;durP1;ratioP1;P2;durP2;ratioP2
13218;SDS011;6674;49.152;11.918;2023-07-08T00:00:50;3.33;;;3.10;;
13218;SDS011;6674;49.152;11.918;2023-07-08T00:03:17;3.50;;;3.20;;
13218;SDS011;6674;49.152;11.918;2023-07-08T00:05:45;3.20;;;2.90;;
13218;SDS011;6674;49.152;11.918;2023-07-08T00:08:13;3.07;;;2.87;;
13218;SDS011;6674;49.152;11.918;2023-07-08T00:10:42;4.10;;;3.63;;
13218;SDS011;6674;49.152;11.918;2023-07-08T00:13:09;3.80;;;3.50;;
13218;SDS011;6674;49.152;11.918;2023-07-08T00:15:36;4.13;;;3.73;;
13218;SDS011;6674;49.152;11.918;2023-07-08T00:18:08;3.57;;;3.27;;
13218;SDS011;6674;49.152;11.918;2023-07-08T00:20:38;4.60;;;3.50;;
13218;SDS011;6674;49.152;11.918;2023-07-08T00:23:07;3.60;;;3.30;;
13218;SDS011;6674;49.152;11.918;2023-07-08T00:25:35;3.43;;;3.13;;
13218;SDS011;6674;49.152;11.918;2023-07-08T00:28:04;3.60;;;3.30;;
13218;SDS011;6674;49.152;11.918;2023-07-08T00:30:34;3.33;;;3.03;;
13218;SDS011;6674;49.152;11.918;2023-07-08T00:33:00;3.43;;;3.13;;
13218;SDS011;6674;49.152;11.918;2023-07-08T00:35:28;4.13;;;3.73;;
13218;SDS011;6674;49.152;11.918;2023-07-08T00:37:57;4.07;;;3.60;;
13218;SDS011;6674;49.152;11.918;2023-07-08T00:40:27;4.30;;;3.90;;
13218;SDS011;6674;49.152;11.918;2023-07-08T00:42:54;4.40;;;3.67;;
13218;SDS011;6674;49.152;11.918;2023-07-08T00:45:29;3.57;;;3.27;;
13218;SDS011;6674;49.152;11.918;2023-07-08T00:48:05;3.97;;;3.57;;
13218;SDS011;6674;49.152;11.918;2023-07-08T00:50:35;4.00;;;3.70;;
13218;SDS011;6674;49.152;11.918;2023-07-08T00:55:52;3.80;;;3.50;;
13218;SDS011;6674;49.152;11.918;2023-07-08T00:58:21;3.63;;;3.33;;
13218;SDS011;6674;49.152;11.918;2023-07-08T01:00:51;4.27;;;3.87;;
13218;SDS011;6674;49.152;11.918;2023-07-08T01:03:22;3.60;;;3.30;;
13218;SDS011;6674;49.152;11.918;2023-07-08T01:05:49;3.67;;;3.37;;
13218;SDS011;6674;49.152;11.918;2023-07-08T01:08:17;3.83;;;3.53;;
13218;SDS011;6674;49.152;11.918;2023-07-08T01:10:46;3.80;;;3.50;;
13218;SDS011;6674;49.152;11.918;2023-07-08T01:13:15;3.70;;;3.40;;
13218;SDS011;6674;49.152;11.918;2023-07-08T01:15:43;3.50;;;3.20;;
13218;SDS011;6674;49.152;11.918;2023-07-08T01:18:14;3.67;;;3.37;;
13218;SDS011;6674;49.152;11.918;2023-07-08T01:20:42;4.47;;;4.07;;
13218;SDS011;6674;49.152;11.918;2023-07-08T01:23:13;3.97;;;3.60;;
13218;SDS011;6674;49.152;11.918;2023-07-08T01:25:41;3.73;;;3.43;;
13218;SDS011;6674;49.152;11.918;2023-07-08T01:28:09;4.00;;;3.60;;
13218;SDS011;6674;49.152;11.918;2023-07-08T01:30:36;4.17;;;3.77;;
13218;SDS011;6674;49.152;11.918;2023-07-08T01:33:04;4.00;;;3.60;;
13218;SDS011;6674;49.152;11.918;2023-07-08T01:35:38;4.20;;;3.80;;
13218;SDS011;6674;49.152;11.918;2023-07-08T01:38:05;4.10;;;3.70;;
13218;SDS011;6674;49.152;11.918;2023-07-08T01:40:36;3.93;;;3.57;;
13218;SDS011;6674;49.152;11.918;2023-07-08T01:43:04;3.57;;;3.27;;
13218;SDS011;6674;49.152;11.918;2023-07-08T01:45:33;4.27;;;3.87;;
13218;SDS011;6674;49.152;11.918;2023-07-08T01:48:03;4.30;;;4.00;;
13218;SDS011;6674;49.152;11.918;2023-07-08T01:50:34;3.80;;;3.50;;
13218;SDS011;6674;49.152;11.918;2023-07-08T01:53:06;3.80;;;3.50;;
13218;SDS011;6674;49.152;11.918;2023-07-08T01:55:38;4.03;;;3.40;;
13218;SDS011;6674;49.152;11.918;2023-07-08T01:58:04;4.43;;;4.00;;
13218;SDS011;6674;49.152;11.918;2023-07-08T02:00:31;4.07;;;3.77;;
13218;SDS011;6674;49.152;11.918;2023-07-08T02:02:58;3.70;;;3.40;;
13218;SDS011;6674;49.152;11.918;2023-07-08T02:05:24;4.00;;;3.70;;
13218;SDS011;6674;49.152;11.918;2023-07-08T02:07:51;3.77;;;3.47;;
13218;SDS011;6674;49.152;11.918;2023-07-08T02:10:18;3.87;;;3.20;;
13218;SDS011;6674;49.152;11.918;2023-07-08T02:12:46;3.77;;;3.47;;
13218;SDS011;6674;49.152;11.918;2023-07-08T02:15:12;4.43;;;4.03;;
13218;SDS011;6674;49.152;11.918;2023-07-08T02:17:39;3.90;;;3.60;;
13218;SDS011;6674;49.152;11.918;2023-07-08T02:20:06;3.30;;;3.10;;
13218;SDS011;6674;49.152;11.918;2023-07-08T02:22:34;4.07;;;3.73;;
13218;SDS011;6674;49.152;11.918;2023-07-08T02:25:01;4.23;;;3.83;;
13218;SDS011;6674;49.152;11.918;2023-07-08T02:27:28;4.17;;;3.87;;
13218;SDS011;6674;49.152;11.918;2023-07-08T02:29:56;4.27;;;3.97;;
13218;SDS011;6674;49.152;11.918;2023-07-08T02:32:22;4.60;;;4.20;;
13218;SDS011;6674;49.152;11.918;2023-07-08T02:34:49;4.17;;;3.77;;
13218;SDS011;6674;49.152;11.918;2023-07-08T02:37:17;3.80;;;3.50;;
13218;SDS011;6674;49.152;11.918;2023-07-08T02:39:43;4.13;;;3.80;;
13218;SDS011;6674;49.152;11.918;2023-07-08T02:42:10;3.70;;;3.40;;
13218;SDS011;6674;49.152;11.918;2023-07-08T02:44:37;4.20;;;3.90;;
13218;SDS011;6674;49.152;11.918;2023-07-08T02:47:04;4.40;;;3.93;;
13218;SDS011;6674;49.152;11.918;2023-07-08T02:49:31;4.43;;;4.03;;
13218;SDS011;6674;49.152;11.918;2023-07-08T02:51:58;3.90;;;3.60;;
13218;SDS011;6674;49.152;11.918;2023-07-08T02:54:24;4.37;;;3.90;;
13218;SDS011;6674;49.152;11.918;2023-07-08T02:56:51;4.33;;;4.00;;
13218;SDS011;6674;49.152;11.918;2023-07-08T02:59:18;4.30;;;3.90;;
13218;SDS011;6674;49.152;11.918;2023-07-08T03:01:44;4.67;;;4.27;;
13218;SDS011;6674;49.152;11.918;2023-07-08T03:04:13;3.80;;;3.50;;
13218;SDS011;6674;49.152;11.918;2023-07-08T03:06:40;4.30;;;3.90;;
13218;SDS011;6674;49.152;11.918;2023-07-08T03:09:07;4.50;;;4.10;;
13218;SDS011;6674;49.152;11.918;2023-07-08T03:11:34;4.37;;;3.97;;
13218;SDS011;6674;49.152;11.918;2023-07-08T03:14:01;4.30;;;3.90;;
13218;SDS011;6674;49.152;11.918;2023-07-08T03:16:27;4.97;;;4.50;;
13218;SDS011;6674;49.152;11.918;2023-07-08T03:18:54;3.93;;;3.63;;
13218;SDS011;6674;49.152;11.918;2023-07-08T03:21:22;4.47;;;4.07;;
13218;SDS011;6674;49.152;11.918;2023-07-08T03:23:49;4.00;;;3.70;;
13218;SDS011;6674;49.152;11.918;2023-07-08T03:26:17;4.80;;;4.40;;
13218;SDS011;6674;49.152;11.918;2023-07-08T03:28:45;4.57;;;4.03;;
13218;SDS011;6674;49.152;11.918;2023-07-08T03:31:12;4.87;;;4.47;;
13218;SDS011;6674;49.152;11.918;2023-07-08T03:33:40;4.80;;;4.30;;
13218;SDS011;6674;49.152;11.918;2023-07-08T03:36:09;4.67;;;3.90;;
13218;SDS011;6674;49.152;11.918;2023-07-08T03:38:39;4.70;;;4.30;;
13218;SDS011;6674;49.152;11.918;2023-07-08T03:41:05;4.13;;;3.73;;
13218;SDS011;6674;49.152;11.918;2023-07-08T03:43:32;4.10;;;3.77;;
13218;SDS011;6674;49.152;11.918;2023-07-08T03:45:59;4.77;;;4.20;;
13218;SDS011;6674;49.152;11.918;2023-07-08T03:48:25;4.37;;;3.97;;
13218;SDS011;6674;49.152;11.918;2023-07-08T03:50:52;4.70;;;4.30;;
13218;SDS011;6674;49.152;11.918;2023-07-08T03:53:18;4.53;;;4.13;;
13218;SDS011;6674;49.152;11.918;2023-07-08T03:55:46;4.00;;;3.70;;
13218;SDS011;6674;49.152;11.918;2023-07-08T03:58:13;4.40;;;4.00;;
13218;SDS011;6674;49.152;11.918;2023-07-08T04:00:40;4.30;;;3.90;;
13218;SDS011;6674;49.152;11.918;2023-07-08T04:03:07;3.80;;;3.50;;
13218;SDS011;6674;49.152;11.918;2023-07-08T04:05:36;4.40;;;4.00;;
13218;SDS011;6674;49.152;11.918;2023-07-08T04:08:03;4.07;;;3.67;;
13218;SDS011;6674;49.152;11.918;2023-07-08T04:10:30;5.20;;;3.60;;
13218;SDS011;6674;49.152;11.918;2023-07-08T04:12:58;4.07;;;3.73;;
13218;SDS011;6674;49.152;11.918;2023-07-08T04:15:24;4.50;;;4.10;;
13218;SDS011;6674;49.152;11.918;2023-07-08T04:17:53;4.23;;;3.93;;
13218;SDS011;6674;49.152;11.918;2023-07-08T04:20:22;4.40;;;4.00;;
13218;SDS011;6674;49.152;11.918;2023-07-08T04:22:49;4.10;;;3.70;;
13218;SDS011;6674;49.152;11.918;2023-07-08T04:25:17;4.77;;;4.33;;
13218;SDS011;6674;49.152;11.918;2023-07-08T04:27:45;5.63;;;4.80;;
13218;SDS011;6674;49.152;11.918;2023-07-08T04:30:16;4.60;;;4.20;;
13218;SDS011;6674;49.152;11.918;2023-07-08T04:32:49;5.23;;;4.77;;
13218;SDS011;6674;49.152;11.918;2023-07-08T04:35:16;4.27;;;3.87;;
13218;SDS011;6674;49.152;11.918;2023-07-08T04:37:43;4.40;;;4.00;;
13218;SDS011;6674;49.152;11.918;2023-07-08T04:40:14;4.10;;;3.80;;
13218;SDS011;6674;49.152;11.918;2023-07-08T04:42:44;4.30;;;3.90;;
13218;SDS011;6674;49.152;11.918;2023-07-08T04:45:13;4.57;;;4.17;;
13218;SDS011;6674;49.152;11.918;2023-07-08T04:47:42;4.50;;;4.10;;
13218;SDS011;6674;49.152;11.918;2023-07-08T04:50:12;5.30;;;4.80;;
13218;SDS011;6674;49.152;11.918;2023-07-08T04:52:38;4.20;;;3.87;;
13218;SDS011;6674;49.152;11.918;2023-07-08T04:55:05;4.77;;;4.37;;
13218;SDS011;6674;49.152;11.918;2023-07-08T04:57:34;4.50;;;4.10;;
13218;SDS011;6674;49.152;11.918;2023-07-08T05:00:01;4.50;;;4.10;;
13218;SDS011;6674;49.152;11.918;2023-07-08T05:02:32;4.67;;;4.27;;
13218;SDS011;6674;49.152;11.918;2023-07-08T05:04:59;5.03;;;4.40;;
13218;SDS011;6674;49.152;11.918;2023-07-08T05:07:25;4.97;;;4.47;;
13218;SDS011;6674;49.152;11.918;2023-07-08T05:09:52;5.00;;;4.57;;
13218;SDS011;6674;49.152;11.918;2023-07-08T05:12:18;4.87;;;4.37;;
13218;SDS011;6674;49.152;11.918;2023-07-08T05:14:45;5.20;;;4.73;;
13218;SDS011;6674;49.152;11.918;2023-07-08T05:17:11;4.93;;;4.53;;
13218;SDS011;6674;49.152;11.918;2023-07-08T05:19:39;5.27;;;4.87;;
13218;SDS011;6674;49.152;11.918;2023-07-08T05:22:09;5.20;;;4.67;;
13218;SDS011;6674;49.152;11.918;2023-07-08T05:24:36;4.43;;;4.03;;
13218;SDS011;6674;49.152;11.918;2023-07-08T05:27:03;4.80;;;4.07;;
13218;SDS011;6674;49.152;11.918;2023-07-08T05:29:30;5.20;;;4.70;;
13218;SDS011;6674;49.152;11.918;2023-07-08T05:31:56;4.77;;;4.37;;
13218;SDS011;6674;49.152;11.918;2023-07-08T05:34:23;4.80;;;4.40;;
13218;SDS011;6674;49.152;11.918;2023-07-08T05:36:51;4.73;;;4.33;;
13218;SDS011;6674;49.152;11.918;2023-07-08T05:39:17;4.50;;;4.10;;
13218;SDS011;6674;49.152;11.918;2023-07-08T05:41:44;4.50;;;4.10;;
13218;SDS011;6674;49.152;11.918;2023-07-08T05:44:10;4.73;;;4.33;;
13218;SDS011;6674;49.152;11.918;2023-07-08T05:46:37;5.17;;;4.67;;
13218;SDS011;6674;49.152;11.918;2023-07-08T05:49:04;5.23;;;4.77;;
13218;SDS011;6674;49.152;11.918;2023-07-08T05:51:30;4.90;;;4.40;;
13218;SDS011;6674;49.152;11.918;2023-07-08T05:53:58;5.07;;;4.57;;
13218;SDS011;6674;49.152;11.918;2023-07-08T05:56:25;4.33;;;3.97;;
13218;SDS011;6674;49.152;11.918;2023-07-08T05:58:51;6.20;;;5.60;;
13218;SDS011;6674;49.152;11.918;2023-07-08T06:01:18;5.17;;;4.67;;
13218;SDS011;6674;49.152;11.918;2023-07-08T06:03:45;5.07;;;4.67;;
13218;SDS011;6674;49.152;11.918;2023-07-08T06:06:11;4.90;;;4.50;;
13218;SDS011;6674;49.152;11.918;2023-07-08T06:08:38;6.00;;;5.50;;
13218;SDS011;6674;49.152;11.918;2023-07-08T06:11:06;4.90;;;4.50;;
13218;SDS011;6674;49.152;11.918;2023-07-08T06:13:33;5.50;;;5.00;;
13218;SDS011;6674;49.152;11.918;2023-07-08T06:16:00;5.23;;;4.73;;
13218;SDS011;6674;49.152;11.918;2023-07-08T06:18:26;5.20;;;4.70;;
13218;SDS011;6674;49.152;11.918;2023-07-08T06:20:53;5.10;;;4.57;;
13218;SDS011;6674;49.152;11.918;2023-07-08T06:23:21;4.93;;;4.30;;
13218;SDS011;6674;49.152;11.918;2023-07-08T06:25:49;5.13;;;4.63;;
13218;SDS011;6674;49.152;11.918;2023-07-08T06:28:17;5.10;;;4.60;;
13218;SDS011;6674;49.152;11.918;2023-07-08T06:30:45;4.83;;;4.43;;
13218;SDS011;6674;49.152;11.918;2023-07-08T06:33:11;4.90;;;4.50;;
13218;SDS011;6674;49.152;11.918;2023-07-08T06:35:38;5.13;;;4.63;;
13218;SDS011;6674;49.152;11.918;2023-07-08T06:38:05;5.00;;;4.60;;
13218;SDS011;6674;49.152;11.918;2023-07-08T06:40:32;5.00;;;4.50;;
13218;SDS011;6674;49.152;11.918;2023-07-08T06:42:59;5.10;;;4.50;;
13218;SDS011;6674;49.152;11.918;2023-07-08T06:45:27;4.67;;;4.27;;
13218;SDS011;6674;49.152;11.918;2023-07-08T06:47:54;4.47;;;4.07;;
13218;SDS011;6674;49.152;11.918;2023-07-08T06:50:20;4.60;;;4.20;;
13218;SDS011;6674;49.152;11.918;2023-07-08T06:52:47;5.07;;;4.57;;
13218;SDS011;6674;49.152;11.918;2023-07-08T06:55:14;5.03;;;4.63;;
13218;SDS011;6674;49.152;11.918;2023-07-08T06:57:40;4.83;;;4.10;;
13218;SDS011;6674;49.152;11.918;2023-07-08T07:00:08;4.93;;;4.50;;
13218;SDS011;6674;49.152;11.918;2023-07-08T07:02:37;4.93;;;4.43;;
13218;SDS011;6674;49.152;11.918;2023-07-08T07:05:04;4.83;;;4.43;;
13218;SDS011;6674;49.152;11.918;2023-07-08T07:07:31;6.70;;;5.10;;
13218;SDS011;6674;49.152;11.918;2023-07-08T07:09:59;5.03;;;4.63;;
13218;SDS011;6674;49.152;11.918;2023-07-08T07:12:26;5.20;;;4.70;;
13218;SDS011;6674;49.152;11.918;2023-07-08T07:14:53;5.40;;;4.90;;
13218;SDS011;6674;49.152;11.918;2023-07-08T07:17:20;4.60;;;4.20;;
13218;SDS011;6674;49.152;11.918;2023-07-08T07:19:48;4.80;;;4.33;;
13218;SDS011;6674;49.152;11.918;2023-07-08T07:22:15;4.90;;;4.50;;
13218;SDS011;6674;49.152;11.918;2023-07-08T07:24:42;5.13;;;4.60;;
13218;SDS011;6674;49.152;11.918;2023-07-08T07:27:09;5.03;;;4.63;;
13218;SDS011;6674;49.152;11.918;2023-07-08T07:29:41;4.90;;;4.50;;
13218;SDS011;6674;49.152;11.918;2023-07-08T07:32:08;5.13;;;4.47;;
13218;SDS011;6674;49.152;11.918;2023-07-08T07:34:35;5.20;;;4.77;;
13218;SDS011;6674;49.152;11.918;2023-07-08T07:37:04;4.67;;;4.27;;
13218;SDS011;6674;49.152;11.918;2023-07-08T07:39:32;5.10;;;4.60;;
13218;SDS011;6674;49.152;11.918;2023-07-08T07:41:58;4.90;;;4.50;;
13218;SDS011;6674;49.152;11.918;2023-07-08T07:44:25;4.63;;;4.13;;
13218;SDS011;6674;49.152;11.918;2023-07-08T07:46:52;4.83;;;4.40;;
13218;SDS011;6674;49.152;11.918;2023-07-08T07:49:19;4.47;;;4.07;;
13218;SDS011;6674;49.152;11.918;2023-07-08T07:51:46;4.87;;;4.47;;
13218;SDS011;6674;49.152;11.918;2023-07-08T07:54:14;4.97;;;4.07;;
13218;SDS011;6674;49.152;11.918;2023-07-08T07:56:41;4.07;;;3.70;;
13218;SDS011;6674;49.152;11.918;2023-07-08T07:59:09;4.77;;;4.30;;
13218;SDS011;6674;49.152;11.918;2023-07-08T08:01:37;5.93;;;4.30;;
13218;SDS011;6674;49.152;11.918;2023-07-08T08:04:03;4.53;;;4.20;;
13218;SDS011;6674;49.152;11.918;2023-07-08T08:06:30;4.67;;;4.27;;
13218;SDS011;6674;49.152;11.918;2023-07-08T08:08:57;4.20;;;3.90;;
13218;SDS011;6674;49.152;11.918;2023-07-08T08:11:25;4.50;;;4.20;;
13218;SDS011;6674;49.152;11.918;2023-07-08T08:13:52;4.30;;;3.90;;
13218;SDS011;6674;49.152;11.918;2023-07-08T08:16:19;4.30;;;3.90;;
13218;SDS011;6674;49.152;11.918;2023-07-08T08:18:46;4.40;;;4.00;;
13218;SDS011;6674;49.152;11.918;2023-07-08T08:21:13;4.20;;;3.90;;
13218;SDS011;6674;49.152;11.918;2023-07-08T08:23:39;5.63;;;4.73;;
13218;SDS011;6674;49.152;11.918;2023-07-08T08:26:06;4.83;;;4.33;;
13218;SDS011;6674;49.152;11.918;2023-07-08T08:28:34;4.60;;;4.20;;
13218;SDS011;6674;49.152;11.918;2023-07-08T08:31:01;4.27;;;3.97;;
13218;SDS011;6674;49.152;11.918;2023-07-08T08:33:28;4.40;;;4.00;;
13218;SDS011;6674;49.152;11.918;2023-07-08T08:35:54;4.53;;;4.10;;
13218;SDS011;6674;49.152;11.918;2023-07-08T08:38:21;4.35;;;3.95;;
13218;SDS011;6674;49.152;11.918;2023-07-08T08:40:48;4.60;;;4.20;;
13218;SDS011;6674;49.152;11.918;2023-07-08T08:43:16;4.40;;;4.00;;
13218;SDS011;6674;49.152;11.918;2023-07-08T08:45:48;4.00;;;3.70;;
13218;SDS011;6674;49.152;11.918;2023-07-08T08:48:22;4.28;;;3.88;;
13218;SDS011;6674;49.152;11.918;2023-07-08T08:50:53;4.22;;;3.75;;
13218;SDS011;6674;49.152;11.918;2023-07-08T08:53:25;4.70;;;4.30;;
13218;SDS011;6674;49.152;11.918;2023-07-08T08:55:54;4.75;;;4.25;;
13218;SDS011;6674;49.152;11.918;2023-07-08T08:58:27;4.45;;;4.10;;
13218;SDS011;6674;49.152;11.918;2023-07-08T09:01:04;5.13;;;4.13;;
13218;SDS011;6674;49.152;11.918;2023-07-08T09:03:36;4.38;;;4.00;;
13218;SDS011;6674;49.152;11.918;2023-07-08T09:06:13;4.03;;;3.72;;
13218;SDS011;6674;49.152;11.918;2023-07-08T09:08:43;4.30;;;3.90;;
13218;SDS011;6674;49.152;11.918;2023-07-08T09:11:14;4.50;;;4.10;;
13218;SDS011;6674;49.152;11.918;2023-07-08T09:13:47;4.40;;;4.00;;
13218;SDS011;6674;49.152;11.918;2023-07-08T09:16:18;3.70;;;3.40;;
13218;SDS011;6674;49.152;11.918;2023-07-08T09:18:53;3.90;;;3.60;;
13218;SDS011;6674;49.152;11.918;2023-07-08T09:21:25;4.40;;;4.10;;
13218;SDS011;6674;49.152;11.918;2023-07-08T09:23:55;4.20;;;3.90;;
13218;SDS011;6674;49.152;11.918;2023-07-08T09:26:26;4.18;;;3.72;;
13218;SDS011;6674;49.152;11.918;2023-07-08T09:28:55;3.83;;;3.53;;
13218;SDS011;6674;49.152;11.918;2023-07-08T09:31:23;3.95;;;3.63;;
13218;SDS011;6674;49.152;11.918;2023-07-08T09:33:53;3.33;;;3.13;;
13218;SDS011;6674;49.152;11.918;2023-07-08T09:36:31;4.88;;;4.13;;
13218;SDS011;6674;49.152;11.918;2023-07-08T09:38:58;4.45;;;4.05;;
13218;SDS011;6674;49.152;11.918;2023-07-08T09:41:30;3.90;;;3.60;;
13218;SDS011;6674;49.152;11.918;2023-07-08T09:44:06;3.90;;;3.60;;
13218;SDS011;6674;49.152;11.918;2023-07-08T09:46:41;3.70;;;3.40;;
13218;SDS011;6674;49.152;11.918;2023-07-08T09:49:09;3.63;;;3.20;;
13218;SDS011;6674;49.152;11.918;2023-07-08T09:51:40;4.00;;;3.70;;
13218;SDS011;6674;49.152;11.918;2023-07-08T09:54:07;3.80;;;3.50;;
13218;SDS011;6674;49.152;11.918;2023-07-08T09:56:34;3.95;;;3.60;;
13218;SDS011;6674;49.152;11.918;2023-07-08T09:59:05;4.20;;;3.80;;
13218;SDS011;6674;49.152;11.918;2023-07-08T10:01:34;3.95;;;3.65;;
13218;SDS011;6674;49.152;11.918;2023-07-08T10:04:03;4.22;;;3.88;;
13218;SDS011;6674;49.152;11.918;2023-07-08T10:06:31;3.47;;;3.17;;
13218;SDS011;6674;49.152;11.918;2023-07-08T10:09:00;4.13;;;3.70;;
13218;SDS011;6674;49.152;11.918;2023-07-08T10:11:30;3.65;;;3.35;;
13218;SDS011;6674;49.152;11.918;2023-07-08T10:13:59;3.83;;;3.50;;
13218;SDS011;6674;49.152;11.918;2023-07-08T10:16:31;3.88;;;3.42;;
13218;SDS011;6674;49.152;11.918;2023-07-08T10:18:59;3.97;;;3.67;;
13218;SDS011;6674;49.152;11.918;2023-07-08T10:21:31;3.85;;;3.53;;
13218;SDS011;6674;49.152;11.918;2023-07-08T10:24:07;4.03;;;3.72;;
13218;SDS011;6674;49.152;11.918;2023-07-08T10:26:48;3.75;;;3.45;;
13218;SDS011;6674;49.152;11.918;2023-07-08T10:29:23;3.75;;;3.45;;
13218;SDS011;6674;49.152;11.918;2023-07-08T10:32:00;3.70;;;3.40;;
13218;SDS011;6674;49.152;11.918;2023-07-08T10:34:36;5.78;;;5.28;;
13218;SDS011;6674;49.152;11.918;2023-07-08T10:37:10;9.13;;;8.32;;
13218;SDS011;6674;49.152;11.918;2023-07-08T10:39:54;8.10;;;7.40;;
13218;SDS011;6674;49.152;11.918;2023-07-08T10:42:35;7.80;;;7.10;;
13218;SDS011;6674;49.152;11.918;2023-07-08T10:45:23;5.60;;;5.10;;
13218;SDS011;6674;49.152;11.918;2023-07-08T10:48:05;5.97;;;5.38;;
13218;SDS011;6674;49.152;11.918;2023-07-08T10:50:44;4.78;;;4.35;;
13218;SDS011;6674;49.152;11.918;2023-07-08T10:53:25;4.85;;;4.10;;
13218;SDS011;6674;49.152;11.918;2023-07-08T10:56:01;4.60;;;4.20;;
13218;SDS011;6674;49.152;11.918;2023-07-08T10:58:46;3.65;;;3.35;;
13218;SDS011;6674;49.152;11.918;2023-07-08T11:01:27;4.40;;;3.72;;
13218;SDS011;6674;49.152;11.918;2023-07-08T11:06:48;4.05;;;3.75;;
13218;SDS011;6674;49.152;11.918;2023-07-08T11:09:23;4.28;;;3.97;;
13218;SDS011;6674;49.152;11.918;2023-07-08T11:11:55;4.53;;;3.85;;
13218;SDS011;6674;49.152;11.918;2023-07-08T11:14:27;3.60;;;3.40;;
13218;SDS011;6674;49.152;11.918;2023-07-08T11:17:03;4.60;;;4.03;;
13218;SDS011;6674;49.152;11.918;2023-07-08T11:19:42;4.00;;;3.70;;
13218;SDS011;6674;49.152;11.918;2023-07-08T11:22:13;4.43;;;3.70;;
13218;SDS011;6674;49.152;11.918;2023-07-08T11:24:46;3.50;;;3.20;;
13218;SDS011;6674;49.152;11.918;2023-07-08T11:27:15;3.70;;;3.40;;
13218;SDS011;6674;49.152;11.918;2023-07-08T11:29:50;3.80;;;3.50;;
13218;SDS011;6674;49.152;11.918;2023-07-08T11:32:21;3.90;;;3.60;;
13218;SDS011;6674;49.152;11.918;2023-07-08T11:34:52;4.57;;;4.18;;
13218;SDS011;6674;49.152;11.918;2023-07-08T11:37:21;4.22;;;3.78;;
13218;SDS011;6674;49.152;11.918;2023-07-08T11:39:54;4.18;;;3.88;;
13218;SDS011;6674;49.152;11.918;2023-07-08T11:42:25;4.43;;;4.03;;
13218;SDS011;6674;49.152;11.918;2023-07-08T11:45:02;4.40;;;3.75;;
13218;SDS011;6674;49.152;11.918;2023-07-08T11:47:37;4.45;;;4.05;;
13218;SDS011;6674;49.152;11.918;2023-07-08T11:50:10;4.38;;;3.83;;
13218;SDS011;6674;49.152;11.918;2023-07-08T11:52:50;4.75;;;4.35;;
13218;SDS011;6674;49.152;11.918;2023-07-08T11:55:22;5.45;;;4.18;;
13218;SDS011;6674;49.152;11.918;2023-07-08T11:57:54;4.65;;;4.05;;
13218;SDS011;6674;49.152;11.918;2023-07-08T12:00:23;3.85;;;3.55;;
13218;SDS011;6674;49.152;11.918;2023-07-08T12:02:55;4.10;;;3.70;;
13218;SDS011;6674;49.152;11.918;2023-07-08T12:05:31;4.15;;;3.75;;
13218;SDS011;6674;49.152;11.918;2023-07-08T12:07:59;4.57;;;4.18;;
13218;SDS011;6674;49.152;11.918;2023-07-08T12:10:31;4.47;;;4.07;;
13218;SDS011;6674;49.152;11.918;2023-07-08T12:13:00;4.72;;;3.80;;
13218;SDS011;6674;49.152;11.918;2023-07-08T12:15:27;4.20;;;3.90;;
13218;SDS011;6674;49.152;11.918;2023-07-08T12:17:56;3.85;;;3.55;;
13218;SDS011;6674;49.152;11.918;2023-07-08T12:20:27;3.88;;;3.58;;
13218;SDS011;6674;49.152;11.918;2023-07-08T12:22:56;4.80;;;4.15;;
13218;SDS011;6674;49.152;11.918;2023-07-08T12:25:26;4.07;;;3.78;;
13218;SDS011;6674;49.152;11.918;2023-07-08T12:27:56;4.15;;;3.75;;
13218;SDS011;6674;49.152;11.918;2023-07-08T12:30:23;4.22;;;3.53;;
13218;SDS011;6674;49.152;11.918;2023-07-08T12:32:53;4.22;;;3.83;;
13218;SDS011;6674;49.152;11.918;2023-07-08T12:35:25;3.88;;;3.58;;
13218;SDS011;6674;49.152;11.918;2023-07-08T12:37:55;3.90;;;3.60;;
13218;SDS011;6674;49.152;11.918;2023-07-08T12:40:26;3.63;;;3.33;;
13218;SDS011;6674;49.152;11.918;2023-07-08T12:42:55;4.35;;;3.95;;
13218;SDS011;6674;49.152;11.918;2023-07-08T12:45:31;4.20;;;3.90;;
13218;SDS011;6674;49.152;11.918;2023-07-08T12:47:58;4.13;;;3.72;;
13218;SDS011;6674;49.152;11.918;2023-07-08T12:50:25;3.80;;;3.50;;
13218;SDS011;6674;49.152;11.918;2023-07-08T12:52:52;4.00;;;3.60;;
13218;SDS011;6674;49.152;11.918;2023-07-08T12:55:18;4.07;;;3.40;;
13218;SDS011;6674;49.152;11.918;2023-07-08T12:57:46;3.67;;;3.38;;
13218;SDS011;6674;49.152;11.918;2023-07-08T13:00:27;3.78;;;3.40;;
13218;SDS011;6674;49.152;11.918;2023-07-08T13:02:57;4.40;;;4.00;;
13218;SDS011;6674;49.152;11.918;2023-07-08T13:05:25;3.70;;;3.40;;
13218;SDS011;6674;49.152;11.918;2023-07-08T13:07:53;4.22;;;3.80;;
13218;SDS011;6674;49.152;11.918;2023-07-08T13:10:23;4.18;;;3.78;;
13218;SDS011;6674;49.152;11.918;2023-07-08T13:12:53;4.10;;;3.70;;
13218;SDS011;6674;49.152;11.918;2023-07-08T13:15:25;4.15;;;3.75;;
13218;SDS011;6674;49.152;11.918;2023-07-08T13:17:55;3.80;;;3.50;;
13218;SDS011;6674;49.152;11.918;2023-07-08T13:20:22;4.00;;;3.70;;
13218;SDS011;6674;49.152;11.918;2023-07-08T13:22:52;3.92;;;3.63;;
13218;SDS011;6674;49.152;11.918;2023-07-08T13:25:25;4.18;;;3.83;;
13218;SDS011;6674;49.152;11.918;2023-07-08T13:27:54;3.92;;;3.63;;
13218;SDS011;6674;49.152;11.918;2023-07-08T13:30:24;4.40;;;4.10;;
13218;SDS011;6674;49.152;11.918;2023-07-08T13:32:54;4.30;;;3.90;;
13218;SDS011;6674;49.152;11.918;2023-07-08T13:35:27;4.82;;;3.88;;
13218;SDS011;6674;49.152;11.918;2023-07-08T13:38:00;4.18;;;3.78;;
13218;SDS011;6674;49.152;11.918;2023-07-08T13:40:27;4.00;;;3.70;;
13218;SDS011;6674;49.152;11.918;2023-07-08T13:42:54;4.80;;;4.20;;
13218;SDS011;6674;49.152;11.918;2023-07-08T13:45:22;4.70;;;4.30;;
13218;SDS011;6674;49.152;11.918;2023-07-08T13:48:02;4.75;;;4.35;;
13218;SDS011;6674;49.152;11.918;2023-07-08T13:50:40;4.38;;;4.07;;
13218;SDS011;6674;49.152;11.918;2023-07-08T13:53:15;4.47;;;4.07;;
13218;SDS011;6674;49.152;11.918;2023-07-08T13:55:47;4.25;;;3.95;;
13218;SDS011;6674;49.152;11.918;2023-07-08T13:58:21;3.95;;;3.65;;
13218;SDS011;6674;49.152;11.918;2023-07-08T14:00:53;4.43;;;3.90;;
13218;SDS011;6674;49.152;11.918;2023-07-08T14:03:22;4.05;;;3.65;;
13218;SDS011;6674;49.152;11.918;2023-07-08T14:05:50;4.43;;;3.97;;
13218;SDS011;6674;49.152;11.918;2023-07-08T14:08:16;4.35;;;3.95;;
13218;SDS011;6674;49.152;11.918;2023-07-08T14:10:44;4.68;;;4.30;;
13218;SDS011;6674;49.152;11.918;2023-07-08T14:13:11;4.25;;;3.85;;
13218;SDS011;6674;49.152;11.918;2023-07-08T14:15:37;4.55;;;3.92;;
13218;SDS011;6674;49.152;11.918;2023-07-08T14:18:04;4.22;;;3.80;;
13218;SDS011;6674;49.152;11.918;2023-07-08T14:20:33;4.05;;;3.75;;
13218;SDS011;6674;49.152;11.918;2023-07-08T14:23:00;4.80;;;4.00;;
13218;SDS011;6674;49.152;11.918;2023-07-08T14:25:26;4.78;;;4.28;;
13218;SDS011;6674;49.152;11.918;2023-07-08T14:27:53;4.18;;;3.78;;
13218;SDS011;6674;49.152;11.918;2023-07-08T14:30:20;4.70;;;4.30;;
13218;SDS011;6674;49.152;11.918;2023-07-08T14:32:47;4.70;;;4.30;;
13218;SDS011;6674;49.152;11.918;2023-07-08T14:35:15;3.95;;;3.65;;
13218;SDS011;6674;49.152;11.918;2023-07-08T14:37:45;4.00;;;3.70;;
13218;SDS011;6674;49.152;11.918;2023-07-08T14:40:23;3.72;;;3.42;;
13218;SDS011;6674;49.152;11.918;2023-07-08T14:42:56;4.22;;;3.83;;
13218;SDS011;6674;49.152;11.918;2023-07-08T14:45:25;4.53;;;4.13;;
13218;SDS011;6674;49.152;11.918;2023-07-08T14:47:54;4.18;;;3.88;;
13218;SDS011;6674;49.152;11.918;2023-07-08T14:50:21;4.68;;;3.90;;
13218;SDS011;6674;49.152;11.918;2023-07-08T14:52:49;4.55;;;4.15;;
13218;SDS011;6674;49.152;11.918;2023-07-08T14:55:15;4.07;;;3.78;;
13218;SDS011;6674;49.152;11.918;2023-07-08T14:57:44;3.90;;;3.60;;
13218;SDS011;6674;49.152;11.918;2023-07-08T15:00:14;4.35;;;4.00;;
13218;SDS011;6674;49.152;11.918;2023-07-08T15:02:42;4.20;;;3.90;;
13218;SDS011;6674;49.152;11.918;2023-07-08T15:05:14;4.47;;;4.18;;